createdAt,value
2018-08-07T00:02:02.198Z,18.90
2018-08-07T00:07:11.375Z,18.70
2018-08-07T00:09:46.177Z,18.80
2018-08-07T00:12:22.005Z,18.70
2018-08-07T00:14:57.866Z,18.70
2018-08-07T00:17:32.606Z,18.80
2018-08-07T00:20:07.548Z,18.80
2018-08-07T00:22:43.448Z,18.70
2018-08-07T00:25:18.208Z,18.70
2018-08-07T00:27:52.943Z,18.60
2018-08-07T00:30:27.709Z,18.50
2018-08-07T00:33:02.454Z,18.50
2018-08-07T00:35:38.310Z,18.50
2018-08-07T00:38:13.096Z,18.50
2018-08-07T00:40:47.921Z,18.50
2018-08-07T00:43:22.712Z,18.40
2018-08-07T00:45:57.508Z,18.40
2018-08-07T00:51:06.926Z,18.40
2018-08-07T00:53:41.682Z,18.30
2018-08-07T00:58:50.666Z,18.30
2018-08-07T01:01:26.776Z,18.30
2018-08-07T01:06:35.763Z,18.30
2018-08-07T01:09:11.383Z,18.30
2018-08-07T01:11:46.148Z,18.30
2018-08-07T01:14:20.903Z,18.20
2018-08-07T01:16:55.688Z,18.20
2018-08-07T01:19:30.408Z,18.20
2018-08-07T01:22:05.179Z,18.20
2018-08-07T01:24:39.878Z,18.20
2018-08-07T01:27:14.671Z,18.20
2018-08-07T01:29:49.484Z,18.20
2018-08-07T01:34:58.473Z,18.20
2018-08-07T01:37:33.265Z,18.20
2018-08-07T01:40:11.038Z,18.20
2018-08-07T01:45:20.068Z,18.10
2018-08-07T01:47:54.797Z,18.00
2018-08-07T01:50:29.930Z,17.90
2018-08-07T01:53:04.653Z,17.90
2018-08-07T01:55:39.438Z,17.80
2018-08-07T01:58:14.213Z,17.80
2018-08-07T02:00:50.019Z,17.80
2018-08-07T02:03:25.741Z,17.80
2018-08-07T02:06:00.508Z,17.80
2018-08-07T02:08:35.237Z,17.80
2018-08-07T02:11:10.034Z,17.70
2018-08-07T02:13:44.781Z,17.70
2018-08-07T02:16:19.544Z,17.80
2018-08-07T02:18:54.265Z,17.80
2018-08-07T02:21:30.011Z,17.80
2018-08-07T02:24:04.750Z,17.70
2018-08-07T02:26:39.500Z,17.70
2018-08-07T02:29:15.308Z,17.70
2018-08-07T02:31:51.160Z,17.70
2018-08-07T02:34:26.123Z,17.60
2018-08-07T02:37:00.947Z,17.50
2018-08-07T02:42:10.127Z,17.50
2018-08-07T02:44:44.823Z,17.40
2018-08-07T02:49:53.980Z,17.40
2018-08-07T02:52:28.728Z,17.30
2018-08-07T02:55:03.527Z,17.20
2018-08-07T03:00:16.563Z,17.20
2018-08-07T03:02:55.215Z,17.20
2018-08-07T03:05:29.916Z,17.20
2018-08-07T03:08:06.740Z,17.10
2018-08-07T03:10:41.452Z,17.10
2018-08-07T03:13:16.235Z,17.10
2018-08-07T03:15:50.937Z,17.20
2018-08-07T03:18:25.748Z,17.20
2018-08-07T03:21:00.916Z,17.20
2018-08-07T03:23:36.062Z,17.20
2018-08-07T03:28:45.002Z,17.20
2018-08-07T03:31:20.806Z,17.10
2018-08-07T03:33:55.638Z,17.10
2018-08-07T03:36:30.443Z,17.10
2018-08-07T03:39:08.678Z,17.10
2018-08-07T03:41:43.440Z,17.10
2018-08-07T03:46:52.771Z,17.00
2018-08-07T03:49:28.519Z,17.00
2018-08-07T03:52:03.326Z,17.10
2018-08-07T03:54:38.388Z,17.10
2018-08-07T03:59:47.394Z,17.10
2018-08-07T04:02:22.132Z,17.20
2018-08-07T04:04:56.830Z,17.20
2018-08-07T04:07:32.292Z,17.20
2018-08-07T04:10:10.350Z,17.30
2018-08-07T04:12:45.156Z,17.40
2018-08-07T04:17:55.103Z,17.50
2018-08-07T04:20:29.832Z,17.60
2018-08-07T04:23:04.542Z,17.70
2018-08-07T04:25:39.261Z,17.70
2018-08-07T04:28:13.989Z,17.80
2018-08-07T04:30:48.975Z,17.80
2018-08-07T04:33:23.675Z,17.80
2018-08-07T04:35:58.444Z,17.90
2018-08-07T04:38:33.176Z,17.90
2018-08-07T04:41:08.265Z,18.00
2018-08-07T04:43:42.990Z,18.10
2018-08-07T04:46:17.710Z,18.10
2018-08-07T04:48:52.429Z,18.20
2018-08-07T04:51:28.576Z,18.30
2018-08-07T04:54:04.019Z,18.40
2018-08-07T04:56:38.720Z,18.50
2018-08-07T04:59:13.527Z,18.80
2018-08-07T05:01:48.356Z,19.50
2018-08-07T05:04:23.099Z,20.00
2018-08-07T05:06:57.836Z,20.40
2018-08-07T05:09:32.580Z,20.90
2018-08-07T05:12:07.347Z,21.10
2018-08-07T05:14:42.080Z,21.10
2018-08-07T05:17:16.817Z,20.80
2018-08-07T05:19:51.600Z,20.80
2018-08-07T05:22:28.664Z,20.70
2018-08-07T05:25:03.562Z,20.80
2018-08-07T05:27:38.643Z,20.80
2018-08-07T05:30:15.053Z,20.80
2018-08-07T05:32:50.865Z,20.80
2018-08-07T05:35:26.591Z,20.80
2018-08-07T05:38:01.703Z,20.90
2018-08-07T05:40:36.443Z,21.40
2018-08-07T05:43:11.447Z,22.40
2018-08-07T05:45:46.208Z,23.10
2018-08-07T05:48:20.984Z,23.50
2018-08-07T05:50:56.135Z,23.90
2018-08-07T05:53:32.058Z,23.90
2018-08-07T05:56:06.795Z,23.60
2018-08-07T06:01:16.012Z,23.40
2018-08-07T06:03:50.908Z,23.30
2018-08-07T06:06:25.681Z,23.30
2018-08-07T06:09:00.457Z,23.40
2018-08-07T06:11:35.214Z,23.90
2018-08-07T06:14:10.304Z,24.30
2018-08-07T06:16:45.046Z,24.90
2018-08-07T06:19:19.777Z,25.10
2018-08-07T06:21:55.495Z,25.50
2018-08-07T06:24:30.223Z,25.20
2018-08-07T06:27:05.094Z,25.80
2018-08-07T06:29:40.875Z,26.50
2018-08-07T06:32:15.595Z,26.60
2018-08-07T06:37:24.250Z,27.40
2018-08-07T06:42:34.335Z,26.80
2018-08-07T06:45:09.984Z,27.70
2018-08-07T06:47:44.483Z,27.50
2018-08-07T06:50:20.187Z,28.20
2018-08-07T06:52:54.554Z,27.70
2018-08-07T06:55:29.173Z,27.70
2018-08-07T06:58:03.671Z,28.00
2018-08-07T07:03:12.072Z,27.70
2018-08-07T07:05:46.593Z,28.00
2018-08-07T07:08:21.038Z,28.50
2018-08-07T07:10:55.520Z,29.10
2018-08-07T07:13:29.980Z,29.20
2018-08-07T07:18:38.767Z,29.00
2018-08-07T07:21:14.511Z,29.10
2018-08-07T07:23:49.082Z,28.90
2018-08-07T07:28:58.682Z,28.60
2018-08-07T07:31:33.147Z,28.80
2018-08-07T07:34:07.700Z,28.70
2018-08-07T07:36:43.350Z,29.30
2018-08-07T07:39:17.913Z,29.00
2018-08-07T07:41:52.705Z,28.60
2018-08-07T07:44:27.259Z,28.60
2018-08-07T07:47:01.783Z,28.80
2018-08-07T07:49:36.459Z,28.40
2018-08-07T07:52:10.931Z,28.50
2018-08-07T07:54:45.502Z,28.90
2018-08-07T07:57:19.977Z,28.90
2018-08-07T07:59:54.503Z,29.00
2018-08-07T08:02:28.957Z,29.20
2018-08-07T08:07:37.962Z,29.60
2018-08-07T08:10:12.588Z,30.80
2018-08-07T08:12:47.119Z,31.50
2018-08-07T08:15:21.610Z,31.70
2018-08-07T08:17:56.098Z,32.30
2018-08-07T08:20:30.682Z,32.70
2018-08-07T08:23:05.286Z,32.10
2018-08-07T08:25:39.826Z,31.90
2018-08-07T08:28:14.288Z,31.30
2018-08-07T08:30:48.798Z,31.50
2018-08-07T08:33:23.312Z,31.60
2018-08-07T08:38:31.825Z,31.00
2018-08-07T08:41:06.811Z,30.80
2018-08-07T08:43:41.270Z,30.90
2018-08-07T08:46:15.783Z,31.20
2018-08-07T08:48:50.281Z,31.40
2018-08-07T08:51:24.830Z,31.00
2018-08-07T08:54:00.318Z,31.60
2018-08-07T08:56:34.871Z,31.30
2018-08-07T08:59:09.379Z,31.20
2018-08-07T09:01:43.906Z,31.40
2018-08-07T09:04:18.794Z,31.40
2018-08-07T09:09:28.366Z,31.40
2018-08-07T09:12:02.840Z,31.60
2018-08-07T09:14:37.403Z,31.80
2018-08-07T09:17:11.908Z,32.10
2018-08-07T09:22:20.789Z,31.60
2018-08-07T09:24:55.321Z,32.30
2018-08-07T09:27:30.819Z,32.60
2018-08-07T09:30:09.705Z,32.90
2018-08-07T09:32:45.911Z,33.00
2018-08-07T09:35:21.345Z,32.80
2018-08-07T09:37:56.667Z,32.50
2018-08-07T09:40:32.272Z,32.40
2018-08-07T09:43:06.886Z,32.20
2018-08-07T09:45:41.394Z,32.80
2018-08-07T09:48:15.866Z,32.70
2018-08-07T09:50:50.387Z,32.60
2018-08-07T09:53:24.850Z,32.40
2018-08-07T09:56:00.413Z,32.20
2018-08-07T09:58:34.994Z,32.60
2018-08-07T10:01:14.962Z,33.80
2018-08-07T10:03:49.839Z,33.50
2018-08-07T10:06:24.398Z,33.00
2018-08-07T10:11:34.098Z,32.80
2018-08-07T10:14:08.648Z,33.20
2018-08-07T10:16:43.122Z,33.20
2018-08-07T10:19:17.655Z,33.40
2018-08-07T10:21:52.498Z,32.80
2018-08-07T10:24:27.001Z,33.30
2018-08-07T10:27:01.489Z,33.40
2018-08-07T10:32:11.451Z,32.90
2018-08-07T10:34:46.021Z,33.20
2018-08-07T10:37:20.489Z,33.00
2018-08-07T10:42:29.011Z,33.30
2018-08-07T10:45:05.395Z,33.90
2018-08-07T10:50:31.654Z,33.50
2018-08-07T10:53:06.146Z,33.40
2018-08-07T10:55:40.650Z,33.30
2018-08-07T10:58:15.149Z,33.70
2018-08-07T11:00:49.883Z,33.30
2018-08-07T11:03:24.422Z,32.90
2018-08-07T11:05:59.940Z,32.90
2018-08-07T11:08:34.407Z,32.90
2018-08-07T11:13:43.945Z,33.90
2018-08-07T11:16:19.735Z,34.00
2018-08-07T11:18:54.167Z,33.50
2018-08-07T11:21:28.686Z,33.50
2018-08-07T11:24:03.504Z,33.20
2018-08-07T11:26:38.017Z,33.50
2018-08-07T11:29:12.464Z,33.10
2018-08-07T11:31:47.015Z,33.00
2018-08-07T11:34:21.633Z,33.70
2018-08-07T11:36:56.109Z,33.30
2018-08-07T11:39:30.651Z,33.60
2018-08-07T11:42:05.177Z,33.90
2018-08-07T11:44:40.776Z,33.80
2018-08-07T11:49:50.331Z,33.80
2018-08-07T11:52:24.813Z,33.60
2018-08-07T11:54:59.367Z,33.70
2018-08-07T11:57:33.869Z,33.90
2018-08-07T12:00:13.379Z,33.90
2018-08-07T12:02:48.228Z,33.60
2018-08-07T12:05:22.773Z,33.90
2018-08-07T12:15:40.404Z,33.80
2018-08-07T12:18:14.876Z,33.60
2018-08-07T12:23:23.361Z,34.00
2018-08-07T12:25:57.986Z,34.00
2018-08-07T12:28:32.509Z,33.80
2018-08-07T12:31:07.099Z,33.70
2018-08-07T12:33:41.565Z,33.40
2018-08-07T12:36:16.113Z,33.80
2018-08-07T12:38:50.742Z,33.70
2018-08-07T12:41:25.630Z,34.00
2018-08-07T12:44:00.140Z,33.70
2018-08-07T12:46:34.735Z,33.50
2018-08-07T12:49:09.254Z,33.20
2018-08-07T12:51:43.797Z,33.50
2018-08-07T12:54:18.320Z,33.20
2018-08-07T12:56:53.858Z,33.50
2018-08-07T12:59:28.421Z,33.70
2018-08-07T13:02:02.892Z,34.00
2018-08-07T13:04:37.440Z,34.10
2018-08-07T13:07:13.290Z,33.70
2018-08-07T13:09:47.888Z,33.70
2018-08-07T13:12:22.550Z,33.40
2018-08-07T13:14:57.100Z,33.60
2018-08-07T13:20:08.894Z,33.70
2018-08-07T13:23:19.687Z,33.50
2018-08-07T13:40:30.235Z,33.20
2018-08-07T13:43:20.744Z,33.30
2018-08-07T13:46:22.436Z,33.50
2018-08-07T13:52:15.837Z,33.40
2018-08-07T13:55:00.919Z,33.10
2018-08-07T13:57:35.468Z,33.20
2018-08-07T14:00:18.406Z,33.30
2018-08-07T14:02:55.572Z,32.90
2018-08-07T14:05:30.190Z,32.90
2018-08-07T14:08:05.174Z,32.80
2018-08-07T14:10:40.682Z,32.90
2018-08-07T14:13:15.476Z,33.00
2018-08-07T14:18:25.017Z,33.40
2018-08-07T14:20:59.501Z,33.60
2018-08-07T14:23:34.019Z,33.40
2018-08-07T14:26:08.622Z,33.50
2018-08-07T14:28:43.156Z,33.70
2018-08-07T14:31:17.657Z,34.00
2018-08-07T14:33:53.294Z,34.10
2018-08-07T14:36:27.782Z,33.70
2018-08-07T14:39:02.559Z,33.80
2018-08-07T14:42:00.098Z,33.80
2018-08-07T14:47:08.789Z,33.70
2018-08-07T14:49:51.738Z,33.60
2018-08-07T14:52:27.261Z,33.60
2018-08-07T14:55:01.794Z,33.80
2018-08-07T14:57:37.346Z,33.70
2018-08-07T15:00:15.017Z,33.50
2018-08-07T15:02:50.575Z,33.50
2018-08-07T15:05:25.158Z,33.50
2018-08-07T15:07:59.626Z,33.60
2018-08-07T15:10:35.519Z,33.80
2018-08-07T15:13:10.077Z,33.90
2018-08-07T15:15:44.615Z,33.80
2018-08-07T15:18:19.166Z,33.60
2018-08-07T15:23:27.927Z,33.60
2018-08-07T15:26:02.513Z,33.50
2018-08-07T15:31:10.999Z,33.50
2018-08-07T15:33:53.147Z,33.40
2018-08-07T15:36:39.641Z,33.40
2018-08-07T15:39:14.218Z,33.40
2018-08-07T15:41:49.784Z,33.40
2018-08-07T15:44:25.309Z,33.30
2018-08-07T15:46:59.852Z,33.30
2018-08-07T15:49:34.392Z,33.30
2018-08-07T15:52:08.900Z,33.30
2018-08-07T15:54:43.836Z,33.30
2018-08-07T15:57:18.291Z,33.30
2018-08-07T15:59:52.805Z,33.30
2018-08-07T16:02:27.267Z,33.20
2018-08-07T16:05:02.008Z,33.10
2018-08-07T16:07:36.507Z,33.20
2018-08-07T16:10:14.300Z,33.20
2018-08-07T16:12:49.790Z,33.20
2018-08-07T16:15:25.302Z,33.20
2018-08-07T16:17:59.751Z,33.20
2018-08-07T16:20:34.292Z,33.20
2018-08-07T16:28:17.659Z,33.10
2018-08-07T16:30:53.210Z,33.10
2018-08-07T16:33:27.683Z,33.00
2018-08-07T16:36:03.160Z,33.00
2018-08-07T16:38:37.551Z,32.90
2018-08-07T16:41:12.014Z,32.80
2018-08-07T16:43:46.468Z,32.80
2018-08-07T16:46:20.951Z,32.80
2018-08-07T16:48:55.397Z,32.80
2018-08-07T16:51:30.863Z,32.80
2018-08-07T16:54:05.849Z,32.80
2018-08-07T16:56:40.299Z,32.80
2018-08-07T16:59:15.704Z,32.80
2018-08-07T17:01:50.159Z,32.80
2018-08-07T17:04:24.561Z,32.70
2018-08-07T17:07:00.003Z,32.70
2018-08-07T17:09:35.418Z,32.70
2018-08-07T17:12:09.884Z,32.60
2018-08-07T17:14:44.331Z,32.60
2018-08-07T17:17:18.822Z,32.50
2018-08-07T17:19:53.278Z,32.50
2018-08-07T17:22:27.675Z,32.40
2018-08-07T17:25:02.135Z,32.40
2018-08-07T17:30:16.539Z,32.30
2018-08-07T17:32:51.099Z,32.20
2018-08-07T17:35:26.589Z,32.20
2018-08-07T17:38:01.076Z,32.10
2018-08-07T17:43:09.546Z,32.10
2018-08-07T17:45:44.971Z,32.10
2018-08-07T17:48:19.499Z,32.00
2018-08-07T17:50:53.980Z,31.90
2018-08-07T17:53:29.394Z,31.80
2018-08-07T17:56:03.883Z,31.70
2018-08-07T17:58:38.347Z,31.60
2018-08-07T18:01:13.134Z,31.60
2018-08-07T18:03:47.608Z,31.40
2018-08-07T18:06:22.169Z,31.40
2018-08-07T18:08:56.721Z,31.30
2018-08-07T18:11:31.183Z,31.10
2018-08-07T18:14:05.744Z,31.00
2018-08-07T18:16:40.219Z,30.90
2018-08-07T18:19:14.627Z,30.80
2018-08-07T18:21:50.477Z,30.70
2018-08-07T18:24:24.964Z,30.50
2018-08-07T18:27:01.367Z,30.40
2018-08-07T18:29:38.867Z,30.40
2018-08-07T18:32:15.590Z,30.30
2018-08-07T18:34:58.244Z,30.20
2018-08-07T18:37:32.843Z,30.10
2018-08-07T18:40:08.195Z,30.00
2018-08-07T18:43:17.044Z,29.90
2018-08-07T18:45:52.545Z,29.70
2018-08-07T18:48:33.527Z,29.70
2018-08-07T18:51:18.306Z,29.70
2018-08-07T18:53:53.554Z,29.60
2018-08-07T18:56:28.010Z,29.50
2018-08-07T18:59:02.491Z,29.40
2018-08-07T19:01:37.356Z,29.20
2018-08-07T19:04:11.795Z,29.00
2018-08-07T19:06:46.273Z,28.80
2018-08-07T19:12:05.303Z,28.60
2018-08-07T19:14:49.392Z,28.40
2018-08-07T19:17:46.417Z,28.10
2018-08-07T19:20:32.562Z,28.10
2018-08-07T19:23:15.049Z,27.90
2018-08-07T19:25:53.737Z,27.80
2018-08-07T19:28:30.282Z,27.70
2018-08-07T19:31:06.736Z,27.60
2018-08-07T19:33:42.504Z,27.50
2018-08-07T19:36:19.745Z,27.40
2018-08-07T19:38:56.787Z,27.30
2018-08-07T19:41:32.483Z,27.10
2018-08-07T19:45:19.072Z,26.90
2018-08-07T19:47:57.668Z,26.80
2018-08-07T19:50:32.389Z,26.70
2018-08-07T19:53:08.008Z,26.60
2018-08-07T19:55:42.778Z,26.60
2018-08-07T19:58:22.839Z,26.50
2018-08-07T20:01:06.818Z,26.50
2018-08-07T20:03:51.024Z,26.40
2018-08-07T20:06:38.546Z,26.30
2018-08-07T20:09:18.157Z,26.30
2018-08-07T20:11:58.293Z,26.20
2018-08-07T20:14:37.106Z,26.10
2018-08-07T20:17:22.080Z,26.10
2018-08-07T20:20:02.499Z,26.10
2018-08-07T20:22:53.750Z,26.10
2018-08-07T20:25:37.938Z,26.10
2018-08-07T20:28:18.090Z,26.00
2018-08-07T20:31:03.502Z,25.90
2018-08-07T20:33:50.460Z,25.90
2018-08-07T20:36:35.185Z,25.80
2018-08-07T20:39:14.465Z,25.80
2018-08-07T20:44:59.282Z,25.80
2018-08-07T20:47:39.280Z,25.70
2018-08-07T20:50:17.839Z,25.70
2018-08-07T20:52:53.219Z,25.80
2018-08-07T20:55:27.996Z,25.80
2018-08-07T20:58:02.769Z,25.80
2018-08-07T21:00:37.528Z,25.70
2018-08-07T21:03:12.283Z,25.70
2018-08-07T21:05:47.027Z,25.70
2018-08-07T21:08:21.788Z,25.80
2018-08-07T21:10:57.559Z,25.80
2018-08-07T21:13:32.223Z,25.80
2018-08-07T21:16:07.104Z,25.80
2018-08-07T21:18:43.016Z,25.80
2018-08-07T21:21:17.755Z,25.70
2018-08-07T21:23:52.510Z,25.70
2018-08-07T21:26:27.347Z,25.60
2018-08-07T21:29:02.101Z,25.70
2018-08-07T21:31:36.952Z,25.60
2018-08-07T21:34:11.673Z,25.70
2018-08-07T21:36:47.495Z,25.70
2018-08-07T21:39:22.200Z,25.60
2018-08-07T21:41:56.915Z,25.50
2018-08-07T21:44:31.790Z,25.50
2018-08-07T21:47:06.695Z,25.40
2018-08-07T21:49:41.464Z,25.40
2018-08-07T21:52:16.232Z,25.40
2018-08-07T21:54:50.956Z,25.40
2018-08-07T21:57:26.717Z,25.40
2018-08-07T22:00:02.512Z,25.30
2018-08-07T22:02:37.207Z,25.40
2018-08-07T22:05:14.524Z,25.40
2018-08-07T22:07:49.342Z,25.40
2018-08-07T22:10:25.148Z,25.30
2018-08-07T22:12:59.936Z,25.30
2018-08-07T22:15:34.724Z,25.40
2018-08-07T22:18:10.624Z,25.30
2018-08-07T22:20:45.359Z,25.30
2018-08-07T22:23:21.084Z,25.30
2018-08-07T22:25:57.032Z,25.30
2018-08-07T22:28:31.703Z,25.20
2018-08-07T22:31:06.520Z,25.20
2018-08-07T22:33:41.220Z,25.30
2018-08-07T22:36:15.932Z,25.40
2018-08-07T22:38:50.648Z,25.30
2018-08-07T22:41:25.390Z,25.30
2018-08-07T22:44:01.124Z,25.30
2018-08-07T22:46:35.930Z,25.30
2018-08-07T22:49:10.641Z,25.30
2018-08-07T22:51:45.575Z,25.30
2018-08-07T22:54:20.272Z,25.30
2018-08-07T22:56:55.003Z,25.20
2018-08-07T22:59:29.701Z,25.20
2018-08-07T23:02:04.627Z,25.30
2018-08-07T23:04:39.334Z,25.30
2018-08-07T23:07:14.047Z,25.20
2018-08-07T23:09:48.826Z,25.20
2018-08-07T23:12:23.739Z,25.20
2018-08-07T23:14:58.423Z,25.20
2018-08-07T23:17:33.136Z,25.10
2018-08-07T23:20:08.879Z,25.00
2018-08-07T23:22:43.674Z,25.00
2018-08-07T23:25:18.497Z,25.00
2018-08-07T23:27:53.184Z,24.90
2018-08-07T23:30:27.956Z,24.50
2018-08-07T23:33:02.647Z,24.90
2018-08-07T23:35:37.395Z,24.90
2018-08-07T23:38:12.459Z,24.90
2018-08-07T23:40:47.236Z,24.90
2018-08-07T23:43:21.935Z,25.00
2018-08-07T23:45:56.679Z,24.90
2018-08-07T23:48:31.483Z,24.80
2018-08-07T23:51:07.184Z,24.80
2018-08-07T23:53:43.454Z,24.80
2018-08-07T23:56:18.160Z,24.90
2018-08-07T23:58:52.987Z,24.80
